Aeroporto :
LOGIN :

Iscrizione | Disclaimer

   EN    FR    IT 

 










Sommario :    VFR   VFR Marginale   IFR   IFR Intensivo   IFR Molto Intensivo
Visibilità : 
Base nubi : 
>= 8 km
>= 3000ft
5 / 8 km
1000 / 3000 ft
1500m / 5 km
500 / 1000 ft
800 / 1500m
200 / 500 ft
< 800m
< 200 ft
Simboli :   Temporali  Nebbia  Neve Forte  Precipitazioni Forti  Vento > 20 kt
SIGMETs :   Varie  Temporali  Ghiacco  Turbolenza  Onda orograficha  Ceneri Vulcaniche






- Altitudine del aeroporto : 424 ft
- Codice IATA : QGY


LHPR - Györ Per

ULTIMO METAR :
  • 210745Z 20009KT 170V230 9999 SCT010 BKN033 BKN083 10/09 Q1012

METARs OBSOLETI :
  • 210715Z 20008KT 3500 -DZ BR BKN006 10/09 Q1012
  • 210645Z 22004KT 190V250 6000 OVC006 10/09 Q1012
  • 210615Z 13004KT 2500 -DZ BR OVC006 10/10 Q1011
  • 210545Z 13006KT 2000 -DZ BR OVC005 10/10 Q1011
  • 210515Z 14006KT 4000 -DZ BR OVC006 10/10 Q1011

TAF AMD TAF LHPR
Valido dal 21 a 07 ore il 21 a 15 ore UTC


210744Z 2107/2115 19010KT 9999 -RA BKN010 BKN033 OVC083
BECMG 2107/2110 NSW BKN033 BKN083
BECMG 2112/2115 13010KT CAVOK



MetMap, La meteo Aeronautica in un colpo d'occhio ! - Copyright ORBIFLY Dicembre 2007 - Disclaimer

ORBIFLY MET'MAP TEAM :

Programmazione e sviluppo : Alexandra Zaïnal
Concezione e sviluppo : Baudouin d'Aumeries
Co-Programmazione e sviluppo : Marc-Olivier Méhu
Supporto tecnico e logistico : Manuel Goepfert
Aiuto per la traduzione : Arnaldo La Scala

Contatto : metmap@orbifly.com




FONTI E CREDITI :

   NOAA